createdAt,value
2019-03-31T00:00:47.482Z,13.17
2019-03-31T00:03:16.176Z,12.30
2019-03-31T00:05:44.856Z,13.73
2019-03-31T00:08:13.543Z,13.57
2019-03-31T00:10:42.230Z,14.33
2019-03-31T00:13:10.917Z,13.67
2019-03-31T00:15:39.603Z,13.50
2019-03-31T00:18:08.288Z,13.67
2019-03-31T00:20:36.958Z,13.73
2019-03-31T00:23:05.710Z,15.80
2019-03-31T00:25:34.390Z,15.70
2019-03-31T00:28:03.123Z,15.03
2019-03-31T00:30:31.808Z,15.10
2019-03-31T00:33:00.562Z,15.03
2019-03-31T00:35:29.270Z,14.33
2019-03-31T00:37:57.901Z,14.93
2019-03-31T00:40:26.567Z,14.87
2019-03-31T00:42:55.247Z,14.60
2019-03-31T00:45:24.038Z,15.63
2019-03-31T00:47:52.722Z,15.10
2019-03-31T00:50:21.459Z,17.07
2019-03-31T00:52:50.132Z,15.70
2019-03-31T00:55:18.939Z,14.87
2019-03-31T00:57:47.622Z,16.57
2019-03-31T01:00:19.671Z,16.13
2019-03-31T01:02:48.478Z,14.60
2019-03-31T01:05:17.256Z,14.83
2019-03-31T01:07:46.244Z,14.47
2019-03-31T01:10:15.236Z,14.83
2019-03-31T01:12:44.526Z,14.93
2019-03-31T01:15:15.982Z,15.23
2019-03-31T01:17:44.651Z,14.63
2019-03-31T01:20:13.633Z,16.83
2019-03-31T01:22:42.319Z,14.97
2019-03-31T01:25:11.486Z,15.67
2019-03-31T01:27:40.201Z,14.90
2019-03-31T01:30:10.845Z,13.47
2019-03-31T01:32:39.831Z,13.63
2019-03-31T01:35:10.418Z,14.50
2019-03-31T01:37:39.306Z,15.87
2019-03-31T01:40:08.587Z,15.43
2019-03-31T01:42:37.346Z,15.43
2019-03-31T01:45:07.737Z,15.23
2019-03-31T01:47:36.464Z,15.40
2019-03-31T01:50:08.657Z,14.20
2019-03-31T01:52:37.670Z,15.30
2019-03-31T01:55:08.551Z,13.63
2019-03-31T01:57:37.232Z,14.53
2019-03-31T02:00:11.650Z,15.10
2019-03-31T02:02:40.347Z,15.17
2019-03-31T02:05:09.129Z,16.83
2019-03-31T02:07:37.824Z,15.87
2019-03-31T02:10:07.396Z,15.30
2019-03-31T02:12:36.250Z,14.53
2019-03-31T02:15:07.022Z,15.17
2019-03-31T02:17:35.714Z,15.03
2019-03-31T02:20:06.307Z,14.77
2019-03-31T02:22:35.030Z,13.70
2019-03-31T02:25:04.001Z,14.37
2019-03-31T02:27:32.758Z,14.23
2019-03-31T02:30:01.495Z,13.90
2019-03-31T02:32:30.183Z,14.13
2019-03-31T02:34:58.864Z,16.90
2019-03-31T02:37:27.542Z,14.97
2019-03-31T02:39:56.212Z,15.87
2019-03-31T02:42:24.993Z,17.43
2019-03-31T02:44:53.682Z,15.20
2019-03-31T02:47:22.474Z,16.53
2019-03-31T02:49:51.195Z,14.77
2019-03-31T02:52:20.190Z,15.13
2019-03-31T02:54:48.846Z,15.20
2019-03-31T02:57:19.065Z,14.67
2019-03-31T02:59:49.379Z,15.13
2019-03-31T03:02:18.991Z,14.93
2019-03-31T03:04:49.459Z,15.57
2019-03-31T03:07:18.746Z,14.87
2019-03-31T03:09:49.636Z,15.53
2019-03-31T03:12:19.418Z,16.10
2019-03-31T03:14:50.170Z,15.40
2019-03-31T03:17:18.852Z,15.20
2019-03-31T03:19:47.526Z,15.83
2019-03-31T03:22:16.312Z,15.47
2019-03-31T03:24:44.972Z,15.60
2019-03-31T03:27:13.658Z,15.00
2019-03-31T03:29:42.366Z,16.87
2019-03-31T03:32:11.089Z,15.53
2019-03-31T03:34:39.802Z,16.27
2019-03-31T03:37:08.480Z,16.77
2019-03-31T03:39:37.200Z,16.67
2019-03-31T03:42:05.942Z,17.17
2019-03-31T03:44:34.621Z,17.93
2019-03-31T03:47:03.269Z,20.00
2019-03-31T03:49:31.964Z,19.53
2019-03-31T03:52:00.883Z,20.03
2019-03-31T03:54:29.535Z,18.93
2019-03-31T03:56:58.220Z,19.47
2019-03-31T03:59:26.904Z,19.43
2019-03-31T04:01:55.599Z,18.67
2019-03-31T04:04:24.293Z,18.17
2019-03-31T04:06:52.965Z,18.67
2019-03-31T04:09:23.877Z,20.10
2019-03-31T04:11:52.545Z,19.60
2019-03-31T04:14:21.228Z,18.10
2019-03-31T04:16:49.911Z,17.53
2019-03-31T04:19:18.580Z,17.90
2019-03-31T04:21:47.418Z,17.87
2019-03-31T04:24:16.104Z,17.70
2019-03-31T04:26:44.765Z,17.23
2019-03-31T04:29:13.459Z,17.40
2019-03-31T04:31:42.125Z,17.87
2019-03-31T04:34:10.822Z,18.37
2019-03-31T04:36:39.497Z,18.47
2019-03-31T04:39:08.936Z,17.10
2019-03-31T04:41:37.596Z,18.17
2019-03-31T04:44:06.309Z,19.13
2019-03-31T04:46:34.951Z,18.63
2019-03-31T04:49:03.636Z,17.90
2019-03-31T04:51:32.317Z,18.13
2019-03-31T04:54:01.033Z,17.50
2019-03-31T04:56:29.695Z,17.83
2019-03-31T04:58:58.371Z,17.20
2019-03-31T05:01:27.072Z,18.83
2019-03-31T05:04:04.401Z,17.40
2019-03-31T05:06:26.173Z,16.40
2019-03-31T05:08:54.855Z,16.43
2019-03-31T05:11:23.584Z,17.33
2019-03-31T05:13:52.268Z,17.87
2019-03-31T05:16:20.957Z,16.00
2019-03-31T05:18:49.643Z,17.17
2019-03-31T05:21:18.321Z,16.27
2019-03-31T05:23:47.006Z,16.17
2019-03-31T05:26:15.694Z,16.27
2019-03-31T05:28:44.424Z,16.00
2019-03-31T05:31:13.067Z,16.70
2019-03-31T05:33:41.743Z,17.40
2019-03-31T05:36:10.420Z,16.93
2019-03-31T05:38:39.103Z,16.20
2019-03-31T05:41:07.768Z,16.63
2019-03-31T05:43:36.441Z,17.53
2019-03-31T05:46:06.011Z,15.40
2019-03-31T05:48:34.698Z,16.13
2019-03-31T05:51:03.410Z,15.07
2019-03-31T05:53:32.093Z,15.23
2019-03-31T05:56:00.780Z,14.90
2019-03-31T05:58:29.469Z,15.93
2019-03-31T06:00:58.149Z,15.50
2019-03-31T06:03:26.923Z,15.10
2019-03-31T06:05:55.670Z,16.20
2019-03-31T06:08:24.360Z,16.87
2019-03-31T06:10:53.049Z,15.63
2019-03-31T06:13:21.735Z,16.00
2019-03-31T06:15:50.419Z,16.33
2019-03-31T06:18:19.152Z,16.27
2019-03-31T06:20:47.834Z,15.53
2019-03-31T06:23:18.650Z,14.80
2019-03-31T06:25:47.059Z,15.03
2019-03-31T06:28:15.740Z,16.23
2019-03-31T06:30:44.427Z,16.00
2019-03-31T06:33:13.109Z,15.30
2019-03-31T06:35:41.800Z,14.57
2019-03-31T06:38:10.484Z,15.03
2019-03-31T06:40:40.066Z,13.50
2019-03-31T06:43:08.816Z,13.63
2019-03-31T06:45:37.498Z,14.23
2019-03-31T06:48:06.186Z,13.50
2019-03-31T06:50:34.870Z,13.00
2019-03-31T06:53:04.421Z,13.50
2019-03-31T06:55:33.182Z,12.70
2019-03-31T06:58:01.852Z,12.63
2019-03-31T07:00:30.540Z,12.33
2019-03-31T07:02:59.227Z,12.43
2019-03-31T07:05:27.910Z,11.93
2019-03-31T07:07:56.635Z,12.57
2019-03-31T07:10:25.357Z,12.23
2019-03-31T07:12:54.123Z,12.20
2019-03-31T07:15:22.831Z,11.83
2019-03-31T07:17:51.496Z,11.90
2019-03-31T07:20:20.227Z,12.40
2019-03-31T07:22:48.936Z,12.47
2019-03-31T07:25:20.214Z,12.20
2019-03-31T07:27:48.971Z,13.90
2019-03-31T07:30:19.958Z,14.10
2019-03-31T07:32:48.644Z,14.53
2019-03-31T07:35:19.029Z,14.27
2019-03-31T07:37:47.980Z,13.43
2019-03-31T07:40:22.668Z,11.53
2019-03-31T07:42:51.575Z,12.57
2019-03-31T07:45:20.567Z,12.77
2019-03-31T07:47:49.286Z,11.83
2019-03-31T07:50:18.965Z,11.00
2019-03-31T07:52:47.658Z,10.87
2019-03-31T07:55:17.242Z,10.33
2019-03-31T07:57:46.030Z,10.60
2019-03-31T08:00:20.917Z,11.23
2019-03-31T08:02:49.705Z,11.37
2019-03-31T08:05:32.088Z,11.60
2019-03-31T08:07:49.207Z,11.33
2019-03-31T08:10:18.681Z,11.93
2019-03-31T08:12:47.369Z,10.63
2019-03-31T08:15:16.952Z,11.73
2019-03-31T08:17:45.659Z,10.73
2019-03-31T08:20:16.454Z,10.28
2019-03-31T08:22:45.136Z,10.43
2019-03-31T08:25:16.018Z,10.60
2019-03-31T08:27:44.739Z,10.23
2019-03-31T08:30:15.568Z,10.93
2019-03-31T08:32:44.319Z,10.93
2019-03-31T08:35:13.402Z,10.45
2019-03-31T08:37:45.105Z,9.83
2019-03-31T08:40:14.543Z,10.45
2019-03-31T08:42:43.253Z,10.05
2019-03-31T08:45:12.549Z,10.38
2019-03-31T08:47:41.338Z,10.90
2019-03-31T08:50:12.851Z,9.85
2019-03-31T08:52:41.538Z,9.30
2019-03-31T08:55:11.361Z,10.32
2019-03-31T08:57:40.043Z,9.28
2019-03-31T09:00:12.409Z,10.23
2019-03-31T09:02:41.133Z,9.58
2019-03-31T09:05:10.393Z,9.15
2019-03-31T09:07:41.890Z,9.48
2019-03-31T09:10:10.815Z,9.25
2019-03-31T09:12:39.592Z,9.45
2019-03-31T09:15:10.365Z,9.93
2019-03-31T09:17:39.316Z,10.35
2019-03-31T09:20:09.034Z,9.88
2019-03-31T09:22:37.713Z,9.60
2019-03-31T09:25:11.020Z,9.28
2019-03-31T09:27:39.717Z,9.83
2019-03-31T09:30:10.959Z,9.43
2019-03-31T09:32:39.629Z,8.90
2019-03-31T09:35:09.311Z,9.45
2019-03-31T09:37:38.008Z,9.15
2019-03-31T09:40:08.757Z,9.10
2019-03-31T09:42:37.545Z,10.25
2019-03-31T09:45:08.620Z,10.68
2019-03-31T09:47:38.597Z,10.08
2019-03-31T09:50:12.488Z,11.60
2019-03-31T09:52:41.308Z,11.12
2019-03-31T09:55:10.974Z,10.50
2019-03-31T09:57:39.655Z,10.90
2019-03-31T10:00:14.273Z,9.95
2019-03-31T10:02:42.949Z,10.05
2019-03-31T10:05:12.347Z,9.28
2019-03-31T10:07:41.125Z,8.73
2019-03-31T10:10:11.979Z,9.85
2019-03-31T10:12:40.682Z,8.85
2019-03-31T10:15:09.607Z,9.58
2019-03-31T10:17:38.289Z,8.23
2019-03-31T10:20:07.064Z,7.87
2019-03-31T10:22:35.739Z,7.78
2019-03-31T10:25:06.810Z,8.88
2019-03-31T10:27:35.544Z,8.43
2019-03-31T10:30:06.359Z,8.93
2019-03-31T10:32:35.028Z,7.85
2019-03-31T10:35:04.595Z,7.70
2019-03-31T10:37:33.261Z,7.97
2019-03-31T10:40:02.003Z,9.38
2019-03-31T10:42:30.687Z,8.43
2019-03-31T10:44:59.362Z,8.45
2019-03-31T10:47:28.070Z,7.60
2019-03-31T10:49:56.732Z,7.75
2019-03-31T10:52:25.513Z,7.20
2019-03-31T10:54:54.206Z,7.28
2019-03-31T10:57:22.893Z,7.17
2019-03-31T10:59:51.579Z,7.08
2019-03-31T11:02:20.264Z,7.12
2019-03-31T11:04:48.966Z,7.05
2019-03-31T11:07:17.638Z,7.03
2019-03-31T11:09:46.338Z,6.92
2019-03-31T11:12:16.057Z,7.67
2019-03-31T11:14:44.756Z,7.60
2019-03-31T11:17:13.419Z,7.50
2019-03-31T11:19:42.103Z,7.95
2019-03-31T11:22:15.328Z,6.60
2019-03-31T11:24:43.988Z,7.90
2019-03-31T11:27:12.693Z,8.60
2019-03-31T11:29:41.381Z,8.05
2019-03-31T11:32:10.059Z,8.73
2019-03-31T11:34:38.727Z,8.08
2019-03-31T11:37:13.372Z,8.40
2019-03-31T11:39:37.838Z,7.83
2019-03-31T11:42:06.523Z,9.28
2019-03-31T11:44:35.205Z,8.48
2019-03-31T11:47:03.898Z,9.83
2019-03-31T11:49:32.583Z,8.78
2019-03-31T11:52:01.257Z,8.98
2019-03-31T11:54:29.948Z,8.73
2019-03-31T11:56:58.650Z,9.55
2019-03-31T11:59:27.343Z,10.18
2019-03-31T12:01:56.029Z,9.25
2019-03-31T12:04:24.710Z,9.78
2019-03-31T12:06:53.429Z,9.45
2019-03-31T12:09:22.174Z,9.35
2019-03-31T12:11:50.907Z,9.55
2019-03-31T12:14:19.586Z,10.00
2019-03-31T12:16:48.270Z,9.80
2019-03-31T12:19:16.964Z,9.33
2019-03-31T12:21:45.749Z,9.73
2019-03-31T12:24:14.432Z,8.23
2019-03-31T12:26:43.118Z,6.80
2019-03-31T12:29:11.834Z,6.62
2019-03-31T12:31:40.576Z,5.90
2019-03-31T12:34:09.258Z,6.08
2019-03-31T12:36:37.934Z,5.83
2019-03-31T12:39:08.910Z,5.50
2019-03-31T12:41:37.584Z,6.60
2019-03-31T12:44:06.269Z,5.80
2019-03-31T12:46:34.938Z,6.20
2019-03-31T12:49:03.602Z,5.72
2019-03-31T12:51:32.361Z,5.65
2019-03-31T12:54:01.052Z,5.60
2019-03-31T12:56:29.731Z,5.78
2019-03-31T12:58:58.402Z,5.80
2019-03-31T13:01:27.088Z,6.00
2019-03-31T13:03:55.810Z,6.20
2019-03-31T13:06:24.473Z,6.53
2019-03-31T13:08:53.171Z,6.05
2019-03-31T13:11:21.812Z,5.87
2019-03-31T13:13:50.495Z,5.53
2019-03-31T13:16:19.180Z,5.50
2019-03-31T13:18:47.870Z,6.47
2019-03-31T13:21:16.542Z,6.17
2019-03-31T13:23:45.248Z,6.15
2019-03-31T13:26:13.928Z,6.80
2019-03-31T13:28:42.611Z,6.80
2019-03-31T13:31:11.283Z,6.87
2019-03-31T13:33:39.986Z,6.40
2019-03-31T13:36:08.682Z,7.10
2019-03-31T13:38:37.350Z,7.53
2019-03-31T13:41:06.015Z,7.40
2019-03-31T13:43:34.729Z,7.25
2019-03-31T13:46:03.384Z,7.17
2019-03-31T13:48:32.064Z,7.92
2019-03-31T13:51:00.747Z,8.48
2019-03-31T13:53:29.424Z,7.85
2019-03-31T13:55:58.105Z,8.00
2019-03-31T13:58:28.692Z,7.50
2019-03-31T14:00:57.538Z,8.60
2019-03-31T14:03:26.269Z,7.72
2019-03-31T14:05:54.957Z,7.92
2019-03-31T14:08:25.869Z,7.75
2019-03-31T14:10:54.050Z,7.95
2019-03-31T14:13:22.717Z,7.20
2019-03-31T14:15:51.404Z,6.62
2019-03-31T14:18:20.095Z,7.17
2019-03-31T14:20:48.765Z,6.95
2019-03-31T14:23:17.451Z,7.72
2019-03-31T14:25:46.123Z,7.90
2019-03-31T14:28:14.800Z,7.78
2019-03-31T14:30:43.523Z,6.87
2019-03-31T14:33:12.167Z,7.08
2019-03-31T14:35:40.889Z,7.37
2019-03-31T14:38:09.576Z,7.60
2019-03-31T14:40:38.293Z,7.85
2019-03-31T14:43:06.970Z,7.53
2019-03-31T14:45:36.296Z,7.40
2019-03-31T14:48:05.317Z,6.72
2019-03-31T14:50:35.613Z,8.05
2019-03-31T14:53:05.092Z,7.42
2019-03-31T14:55:33.883Z,8.35
2019-03-31T14:58:02.586Z,7.87
2019-03-31T15:00:31.364Z,7.73
2019-03-31T15:03:00.071Z,6.70
2019-03-31T15:05:28.726Z,7.27
2019-03-31T15:07:58.713Z,7.77
2019-03-31T15:10:27.661Z,7.60
2019-03-31T15:12:56.359Z,7.47
2019-03-31T15:15:25.041Z,7.50
2019-03-31T15:17:53.752Z,7.53
2019-03-31T15:20:22.417Z,7.77
2019-03-31T15:22:51.533Z,7.93
2019-03-31T15:25:20.465Z,8.03
2019-03-31T15:27:49.173Z,8.37
2019-03-31T15:30:18.916Z,8.97
2019-03-31T15:32:47.593Z,8.73
2019-03-31T15:35:16.761Z,8.80
2019-03-31T15:37:45.450Z,8.27
2019-03-31T15:40:14.119Z,7.37
2019-03-31T15:42:42.808Z,8.10
2019-03-31T15:45:11.912Z,7.97
2019-03-31T15:47:40.717Z,7.60
2019-03-31T15:50:09.795Z,8.17
2019-03-31T15:52:38.484Z,8.17
2019-03-31T15:55:07.927Z,8.63
2019-03-31T15:57:36.614Z,9.30
2019-03-31T16:00:07.359Z,8.17
2019-03-31T16:02:36.041Z,8.67
2019-03-31T16:05:07.384Z,8.43
2019-03-31T16:07:36.054Z,8.70
2019-03-31T16:10:06.742Z,9.13
2019-03-31T16:12:35.489Z,7.90
2019-03-31T16:15:06.006Z,8.80
2019-03-31T16:17:34.712Z,8.53
2019-03-31T16:20:03.411Z,9.03
2019-03-31T16:22:32.084Z,9.13
2019-03-31T16:25:17.349Z,9.00
2019-03-31T16:27:46.033Z,8.60
2019-03-31T16:30:15.416Z,8.87
2019-03-31T16:32:44.105Z,8.73
2019-03-31T16:35:12.765Z,8.40
2019-03-31T16:37:41.452Z,8.47
2019-03-31T16:40:10.239Z,8.17
2019-03-31T16:42:39.027Z,9.23
2019-03-31T16:45:10.785Z,8.50
2019-03-31T16:47:39.464Z,8.83
2019-03-31T16:50:08.654Z,8.83
2019-03-31T16:52:37.379Z,9.70
2019-03-31T16:55:06.325Z,9.37
2019-03-31T16:57:35.016Z,8.77
2019-03-31T17:00:04.196Z,9.37
2019-03-31T17:02:32.868Z,8.73
2019-03-31T17:05:01.564Z,8.83
2019-03-31T17:07:30.242Z,8.73
2019-03-31T17:09:58.933Z,8.80
2019-03-31T17:12:27.615Z,8.23
2019-03-31T17:14:56.302Z,9.00
2019-03-31T17:17:24.982Z,7.93
2019-03-31T17:19:53.667Z,8.43
2019-03-31T17:22:22.365Z,8.93
2019-03-31T17:24:51.095Z,8.70
2019-03-31T17:27:19.831Z,11.00
2019-03-31T17:29:48.508Z,13.03
2019-03-31T17:32:17.307Z,11.70
2019-03-31T17:34:45.997Z,11.83
2019-03-31T17:37:14.687Z,10.97
2019-03-31T17:39:43.574Z,13.20
2019-03-31T17:42:12.251Z,12.27
2019-03-31T17:44:40.919Z,11.67
2019-03-31T17:47:09.608Z,11.80
2019-03-31T17:49:38.376Z,11.73
2019-03-31T17:52:07.049Z,12.53
2019-03-31T17:54:35.731Z,12.50
2019-03-31T17:57:04.515Z,12.90
2019-03-31T17:59:33.175Z,11.37
2019-03-31T18:02:01.851Z,12.10
2019-03-31T18:04:30.627Z,11.33
2019-03-31T18:06:59.311Z,11.73
2019-03-31T18:09:28.003Z,15.67
2019-03-31T18:11:56.724Z,18.47
2019-03-31T18:14:25.399Z,16.10
2019-03-31T18:16:54.073Z,16.87
2019-03-31T18:19:22.756Z,13.67
2019-03-31T18:21:51.440Z,13.17
2019-03-31T18:24:20.124Z,11.77
2019-03-31T18:26:48.808Z,10.83
2019-03-31T18:29:17.518Z,11.30
2019-03-31T18:31:46.203Z,10.47
2019-03-31T18:34:14.882Z,11.10
2019-03-31T18:36:43.552Z,10.40
2019-03-31T18:39:12.239Z,11.80
2019-03-31T18:41:40.924Z,12.03
2019-03-31T18:44:09.657Z,12.07
2019-03-31T18:46:38.355Z,12.37
2019-03-31T18:49:07.042Z,13.20
2019-03-31T18:51:35.751Z,13.10
2019-03-31T18:54:06.031Z,11.80
2019-03-31T18:56:42.339Z,12.03
2019-03-31T18:59:12.646Z,11.67
2019-03-31T19:01:42.890Z,11.93
2019-03-31T19:04:29.156Z,12.83
2019-03-31T19:06:59.505Z,12.30
2019-03-31T19:09:46.017Z,12.50
2019-03-31T19:12:16.272Z,13.63
2019-03-31T19:15:01.600Z,15.23
2019-03-31T19:17:49.456Z,16.90
2019-03-31T19:20:22.999Z,16.97
2019-03-31T19:22:53.230Z,16.73
2019-03-31T19:25:29.496Z,18.97
2019-03-31T19:27:59.744Z,19.13
2019-03-31T19:30:46.486Z,20.33
2019-03-31T19:33:32.003Z,21.73
2019-03-31T19:36:11.573Z,19.77
2019-03-31T19:38:58.277Z,18.17
2019-03-31T19:41:28.519Z,18.90
2019-03-31T19:43:58.763Z,19.20
2019-03-31T19:46:35.347Z,17.93
2019-03-31T19:49:05.585Z,14.77
2019-03-31T19:51:51.216Z,15.93
2019-03-31T19:54:24.247Z,14.43
2019-03-31T19:56:57.520Z,14.37
2019-03-31T19:59:36.722Z,14.00
2019-03-31T20:02:16.499Z,13.80
2019-03-31T20:04:52.522Z,14.80
2019-03-31T20:07:40.800Z,14.03
2019-03-31T20:10:23.554Z,14.13
2019-03-31T20:12:59.480Z,14.97
2019-03-31T20:15:45.717Z,14.57
2019-03-31T20:18:15.956Z,14.60
2019-03-31T20:20:48.913Z,14.03
2019-03-31T20:23:21.991Z,14.83
2019-03-31T20:26:01.010Z,14.10
2019-03-31T20:28:33.923Z,14.57
2019-03-31T20:31:20.137Z,14.30
2019-03-31T20:34:06.611Z,13.67
2019-03-31T20:36:53.082Z,13.83
2019-03-31T20:39:25.906Z,13.33
2019-03-31T20:41:59.030Z,13.67
2019-03-31T20:44:27.712Z,12.93
2019-03-31T20:46:56.390Z,13.53
2019-03-31T20:49:25.075Z,12.97
2019-03-31T20:51:53.818Z,11.90
2019-03-31T20:54:22.622Z,12.43
2019-03-31T20:56:51.289Z,11.90
2019-03-31T20:59:19.984Z,12.47
2019-03-31T21:01:48.677Z,12.90
2019-03-31T21:04:17.342Z,13.37
2019-03-31T21:06:46.045Z,12.70
2019-03-31T21:09:14.710Z,12.20
2019-03-31T21:11:43.498Z,11.93
2019-03-31T21:14:12.319Z,11.63
2019-03-31T21:16:40.982Z,11.50
2019-03-31T21:19:09.652Z,11.27
2019-03-31T21:21:38.341Z,10.90
2019-03-31T21:24:07.026Z,11.93
2019-03-31T21:26:35.722Z,10.90
2019-03-31T21:29:04.400Z,11.47
2019-03-31T21:31:33.091Z,11.47
2019-03-31T21:34:01.757Z,11.07
2019-03-31T21:36:30.442Z,11.77
2019-03-31T21:38:59.122Z,12.13
2019-03-31T21:41:27.826Z,11.93
2019-03-31T21:43:56.470Z,11.53
2019-03-31T21:46:25.144Z,12.90
2019-03-31T21:48:53.827Z,12.30
2019-03-31T21:51:22.532Z,13.27
2019-03-31T21:53:51.207Z,12.37
2019-03-31T21:56:19.988Z,12.77
2019-03-31T21:58:48.843Z,12.00
2019-03-31T22:01:17.888Z,12.53
2019-03-31T22:03:46.969Z,11.97
2019-03-31T22:06:15.751Z,12.77
2019-03-31T22:08:44.425Z,12.20
2019-03-31T22:11:13.116Z,12.20
2019-03-31T22:13:41.781Z,12.77
2019-03-31T22:16:10.509Z,13.10
2019-03-31T22:18:39.198Z,13.50
2019-03-31T22:21:07.858Z,12.70
2019-03-31T22:23:36.564Z,12.90
2019-03-31T22:26:05.332Z,11.63
2019-03-31T22:28:34.084Z,11.93
2019-03-31T22:31:02.919Z,12.10
2019-03-31T22:33:31.592Z,12.63
2019-03-31T22:36:17.652Z,13.17
2019-03-31T22:38:46.327Z,13.43
2019-03-31T22:41:15.001Z,13.33
2019-03-31T22:43:43.754Z,12.73
2019-03-31T22:46:12.436Z,12.93
2019-03-31T22:48:41.149Z,12.87
2019-03-31T22:51:10.241Z,13.10
2019-03-31T22:53:39.539Z,13.00
2019-03-31T22:56:08.219Z,14.00
2019-03-31T22:58:36.892Z,12.87
2019-03-31T23:01:05.597Z,12.87
2019-03-31T23:03:34.296Z,13.00
2019-03-31T23:06:03.107Z,12.73
2019-03-31T23:08:31.803Z,12.13
2019-03-31T23:11:00.504Z,12.03
2019-03-31T23:13:29.176Z,12.03
2019-03-31T23:15:57.851Z,12.07
2019-03-31T23:18:26.546Z,12.37
2019-03-31T23:20:55.217Z,12.43
2019-03-31T23:23:23.897Z,12.13
2019-03-31T23:25:52.613Z,11.77
2019-03-31T23:28:21.300Z,11.83
2019-03-31T23:30:49.982Z,11.80
2019-03-31T23:33:18.644Z,12.53
2019-03-31T23:35:47.332Z,13.93
2019-03-31T23:38:16.018Z,13.83
2019-03-31T23:40:44.686Z,14.93
2019-03-31T23:43:13.384Z,16.30
2019-03-31T23:45:42.062Z,18.23
2019-03-31T23:48:10.737Z,17.43
2019-03-31T23:50:39.412Z,17.20
2019-03-31T23:53:08.136Z,17.27
2019-03-31T23:55:36.817Z,18.20
2019-03-31T23:58:05.507Z,19.17
